Time;durP1;ratioP1;P1;durP2;ratioP2;P2;SDS_P1;SDS_P2;PMS_P1;PMS_P2;Temp;Humidity;BMP_temperature;BMP_pressure;BME280_temperature;BME280_humidity;BME280_pressure;Samples;Min_cycle;Max_cycle;Signal;HPM_P1;HPM_P2
2023/01/09 00:00:49;;;;;;;19.10;10.90;;;;;;;;;;4992146;28;20467;-69
2023/01/09 00:03:14;;;;;;;10.77;6.85;;;;;;;;;;4992599;28;20037;-68
2023/01/09 00:05:40;;;;;;;14.60;9.13;;;;;;;;;;4992399;28;20034;-68
2023/01/09 00:08:05;;;;;;;17.25;11.25;;;;;;;;;;4992863;28;20030;-68
2023/01/09 00:10:31;;;;;;;8.75;5.78;;;;;;;;;;4992397;28;20033;-69
2023/01/09 00:12:56;;;;;;;16.85;9.73;;;;;;;;;;4992704;28;20499;-68
2023/01/09 00:15:21;;;;;;;17.10;10.25;;;;;;;;;;4992487;28;20030;-68
2023/01/09 00:17:48;;;;;;;17.27;9.85;;;;;;;;;;4988543;28;20018;-69
2023/01/09 00:20:14;;;;;;;17.30;11.13;;;;;;;;;;4983852;28;20134;-69
2023/01/09 00:22:39;;;;;;;18.02;11.40;;;;;;;;;;4982736;28;20110;-69
2023/01/09 00:25:05;;;;;;;17.13;10.57;;;;;;;;;;4984642;28;20025;-69
2023/01/09 00:27:32;;;;;;;17.95;12.10;;;;;;;;;;4985037;28;20058;-69
2023/01/09 00:29:58;;;;;;;16.60;11.32;;;;;;;;;;4986225;28;20033;-67
2023/01/09 00:32:23;;;;;;;18.13;9.95;;;;;;;;;;4986406;28;20023;-67
2023/01/09 00:34:49;;;;;;;20.95;12.15;;;;;;;;;;4984884;28;20023;-67
2023/01/09 00:37:14;;;;;;;17.58;11.38;;;;;;;;;;4986708;28;20506;-67
2023/01/09 00:39:41;;;;;;;17.13;10.95;;;;;;;;;;4993845;28;20029;-67
2023/01/09 00:42:10;;;;;;;20.23;12.15;;;;;;;;;;4995975;28;20030;-67
2023/01/09 00:44:41;;;;;;;16.73;10.57;;;;;;;;;;4996031;28;20027;-66
2023/01/09 00:47:12;;;;;;;;;;;;;;;;;;4995978;28;20292;-67
2023/01/09 00:49:38;;;;;;;19.40;10.95;;;;;;;;;;4994674;28;20393;-67
2023/01/09 00:52:08;;;;;;;18.42;10.57;;;;;;;;;;4987203;28;20027;-67
2023/01/09 00:54:33;;;;;;;17.20;10.45;;;;;;;;;;4995563;28;20030;-69
2023/01/09 00:56:59;;;;;;;20.33;12.15;;;;;;;;;;4995607;28;20046;-69
2023/01/09 00:59:26;;;;;;;20.40;11.55;;;;;;;;;;4988727;28;20023;-67
2023/01/09 01:01:52;;;;;;;16.80;10.63;;;;;;;;;;4983433;28;20031;-67
2023/01/09 01:09:45;;;;;;;20.90;12.07;;;;;;;;;;4985304;28;20029;-67
2023/01/09 01:12:11;;;;;;;18.63;10.80;;;;;;;;;;4985223;28;20023;-67
2023/01/09 01:14:37;;;;;;;18.38;10.90;;;;;;;;;;4983557;28;20399;-67
2023/01/09 01:17:04;;;;;;;18.73;11.75;;;;;;;;;;4984036;28;20103;-69
2023/01/09 01:19:29;;;;;;;20.60;11.73;;;;;;;;;;4985327;28;20197;-67
2023/01/09 01:21:55;;;;;;;10.80;5.80;;;;;;;;;;4985073;28;20104;-69
2023/01/09 01:24:21;;;;;;;20.50;11.30;;;;;;;;;;4983815;28;20039;-69
2023/01/09 01:26:46;;;;;;;19.58;11.50;;;;;;;;;;4983628;28;20487;-69
2023/01/09 01:29:12;;;;;;;18.98;12.20;;;;;;;;;;4984809;28;20041;-69
2023/01/09 01:31:38;;;;;;;20.67;11.65;;;;;;;;;;4983267;28;20030;-69
2023/01/09 01:34:03;;;;;;;13.68;6.82;;;;;;;;;;4983775;28;20029;-67
2023/01/09 01:36:29;;;;;;;16.02;7.72;;;;;;;;;;4983503;28;20097;-67
2023/01/09 01:38:54;;;;;;;20.33;11.85;;;;;;;;;;4982766;28;20027;-67
2023/01/09 01:41:28;;;;;;;14.20;9.23;;;;;;;;;;4984204;28;20387;-67
2023/01/09 01:44:26;;;;;;;24.02;13.88;;;;;;;;;;4984688;28;20038;-68
2023/01/09 01:46:53;;;;;;;19.98;12.77;;;;;;;;;;4984511;28;20737;-67
2023/01/09 01:49:19;;;;;;;11.68;6.70;;;;;;;;;;4986714;28;20360;-68
2023/01/09 01:51:50;;;;;;;22.83;13.00;;;;;;;;;;4983445;28;20033;-68
2023/01/09 01:54:23;;;;;;;22.13;12.75;;;;;;;;;;4984636;28;20484;-68
2023/01/09 01:56:55;;;;;;;16.55;9.73;;;;;;;;;;4984262;28;20023;-68
2023/01/09 01:59:49;;;;;;;11.48;6.90;;;;;;;;;;4984471;28;20125;-68
2023/01/09 02:02:21;;;;;;;22.50;11.88;;;;;;;;;;4984960;28;20361;-68
2023/01/09 02:04:49;;;;;;;22.42;13.27;;;;;;;;;;4982682;28;20112;-68
2023/01/09 02:07:15;;;;;;;18.65;11.57;;;;;;;;;;4984237;28;20101;-68
2023/01/09 02:09:43;;;;;;;19.08;11.40;;;;;;;;;;4982971;28;20452;-68
2023/01/09 02:12:18;;;;;;;21.35;12.48;;;;;;;;;;4977416;28;20373;-68
2023/01/09 02:14:46;;;;;;;19.52;10.88;;;;;;;;;;4974649;28;20421;-68
2023/01/09 02:17:31;;;;;;;19.63;12.80;;;;;;;;;;4974581;28;20026;-68
2023/01/09 02:20:33;;;;;;;20.10;12.65;;;;;;;;;;4974308;28;20049;-68
2023/01/09 02:23:11;;;;;;;22.48;12.55;;;;;;;;;;4974422;28;20066;-68
2023/01/09 02:25:51;;;;;;;22.35;13.23;;;;;;;;;;4974156;28;20117;-68
2023/01/09 02:28:16;;;;;;;;;;;;;;;;;;4974538;28;20035;-68
2023/01/09 02:31:03;;;;;;;12.05;7.38;;;;;;;;;;4974147;28;19978;-68
2023/01/09 02:33:47;;;;;;;20.30;11.95;;;;;;;;;;4974076;28;20109;-68
2023/01/09 02:36:45;;;;;;;24.77;13.48;;;;;;;;;;4973889;28;20111;-68
2023/01/09 02:39:35;;;;;;;21.73;13.32;;;;;;;;;;4952574;29;20050;-68
2023/01/09 02:42:13;;;;;;;20.60;12.38;;;;;;;;;;4952754;29;20046;-68
2023/01/09 02:44:41;;;;;;;24.48;13.50;;;;;;;;;;4952405;29;20174;-68
2023/01/09 02:47:16;;;;;;;18.70;10.85;;;;;;;;;;4951822;28;20047;-68
2023/01/09 02:49:43;;;;;;;20.85;12.32;;;;;;;;;;4968008;28;20439;-68
2023/01/09 02:52:30;;;;;;;24.92;13.82;;;;;;;;;;4971783;28;20027;-68
2023/01/09 02:55:23;;;;;;;14.05;8.55;;;;;;;;;;4971682;28;20100;-68
2023/01/09 02:57:51;;;;;;;19.73;10.57;;;;;;;;;;4971689;28;20030;-69
2023/01/09 03:00:31;;;;;;;21.08;13.20;;;;;;;;;;4971549;28;20499;-68
2023/01/09 03:03:11;;;;;;;24.30;12.68;;;;;;;;;;4971336;28;20054;-68
2023/01/09 03:05:44;;;;;;;22.00;12.73;;;;;;;;;;4971410;28;20039;-68
2023/01/09 03:08:19;;;;;;;23.70;13.55;;;;;;;;;;4970671;28;20186;-68
2023/01/09 03:11:06;;;;;;;19.05;11.68;;;;;;;;;;4971462;28;20558;-68
2023/01/09 03:13:40;;;;;;;20.42;12.35;;;;;;;;;;4971523;28;20162;-68
2023/01/09 03:16:11;;;;;;;21.30;12.70;;;;;;;;;;4972439;28;20062;-68
2023/01/09 03:18:38;;;;;;;20.08;13.27;;;;;;;;;;4973327;28;20042;-68
2023/01/09 03:21:06;;;;;;;23.98;13.63;;;;;;;;;;4973709;28;20156;-68
2023/01/09 03:23:51;;;;;;;20.48;12.35;;;;;;;;;;4973416;28;20038;-69
2023/01/09 03:26:17;;;;;;;23.45;14.27;;;;;;;;;;4973409;28;20023;-68
2023/01/09 03:28:43;;;;;;;22.10;12.88;;;;;;;;;;4973614;28;20026;-68
2023/01/09 03:31:08;;;;;;;23.20;13.68;;;;;;;;;;4973410;28;20349;-68
2023/01/09 03:33:34;;;;;;;20.80;13.07;;;;;;;;;;4973174;28;20035;-68
2023/01/09 03:35:59;;;;;;;22.27;13.30;;;;;;;;;;4972861;28;20125;-68
2023/01/09 03:38:25;;;;;;;23.38;13.88;;;;;;;;;;4972614;28;20027;-68
2023/01/09 03:40:50;;;;;;;38.10;15.48;;;;;;;;;;4972686;28;20035;-68
2023/01/09 03:43:16;;;;;;;22.55;13.95;;;;;;;;;;4972355;28;20046;-68
2023/01/09 03:45:42;;;;;;;16.23;8.18;;;;;;;;;;4972931;28;20023;-69
2023/01/09 03:48:07;;;;;;;20.98;12.98;;;;;;;;;;4980452;28;20022;-68
2023/01/09 03:50:33;;;;;;;12.60;7.82;;;;;;;;;;5012136;28;20026;-67
2023/01/09 03:52:59;;;;;;;19.90;12.32;;;;;;;;;;5012029;28;20030;-67
2023/01/09 03:55:24;;;;;;;24.08;13.57;;;;;;;;;;5012088;28;20506;-68
2023/01/09 03:57:51;;;;;;;23.00;13.65;;;;;;;;;;5012261;28;20030;-68
2023/01/09 04:00:18;;;;;;;23.00;13.38;;;;;;;;;;5014731;28;20030;-68
2023/01/09 04:02:43;;;;;;;24.95;14.27;;;;;;;;;;5015466;28;20026;-67
2023/01/09 04:05:09;;;;;;;24.42;12.82;;;;;;;;;;5015260;28;20072;-67
2023/01/09 04:07:34;;;;;;;14.40;10.15;;;;;;;;;;5015254;28;20463;-67
2023/01/09 04:10:00;;;;;;;25.35;14.35;;;;;;;;;;5015105;28;20022;-68
2023/01/09 04:12:25;;;;;;;11.27;7.60;;;;;;;;;;5015837;28;20033;-68
2023/01/09 04:14:50;;;;;;;25.10;14.13;;;;;;;;;;5015865;28;20092;-67
2023/01/09 04:17:16;;;;;;;24.40;14.85;;;;;;;;;;5015686;28;20025;-67
2023/01/09 04:19:41;;;;;;;19.17;10.50;;;;;;;;;;5015724;28;20029;-68
2023/01/09 04:22:07;;;;;;;21.25;12.60;;;;;;;;;;5015633;28;20030;-68
2023/01/09 04:24:32;;;;;;;25.17;13.95;;;;;;;;;;5015564;28;20037;-67
2023/01/09 04:26:58;;;;;;;21.80;13.10;;;;;;;;;;5015656;28;20088;-67
2023/01/09 04:29:23;;;;;;;24.30;13.80;;;;;;;;;;5015649;28;20486;-67
2023/01/09 04:31:49;;;;;;;24.95;14.85;;;;;;;;;;5014969;28;20444;-68
2023/01/09 04:34:14;;;;;;;21.77;12.07;;;;;;;;;;5014809;28;20384;-67
2023/01/09 04:36:41;;;;;;;20.45;13.10;;;;;;;;;;5014753;28;20431;-68
2023/01/09 04:39:07;;;;;;;24.10;14.02;;;;;;;;;;5014823;28;20520;-67
2023/01/09 04:41:48;;;;;;;22.95;14.10;;;;;;;;;;5014835;28;20057;-67
2023/01/09 04:44:13;;;;;;;;;;;;;;;;;;5015412;28;20030;-67
2023/01/09 04:46:39;;;;;;;27.55;14.80;;;;;;;;;;5015078;28;19963;-67
2023/01/09 04:49:04;;;;;;;17.15;9.82;;;;;;;;;;5014766;28;20038;-68
2023/01/09 04:51:30;;;;;;;20.08;11.75;;;;;;;;;;5014463;28;20026;-67
2023/01/09 04:53:55;;;;;;;27.00;14.57;;;;;;;;;;5014593;28;20094;-67
2023/01/09 04:56:20;;;;;;;11.85;7.95;;;;;;;;;;5014957;28;20033;-68
2023/01/09 04:58:46;;;;;;;24.52;14.13;;;;;;;;;;5014706;28;20029;-68
2023/01/09 05:01:11;;;;;;;20.85;12.40;;;;;;;;;;5014985;28;20022;-67
2023/01/09 05:03:37;;;;;;;18.65;10.52;;;;;;;;;;5014989;28;20517;-67
2023/01/09 05:06:03;;;;;;;25.65;14.45;;;;;;;;;;5014202;28;20087;-67
2023/01/09 05:08:28;;;;;;;20.50;12.15;;;;;;;;;;5014334;28;20053;-67
2023/01/09 05:10:53;;;;;;;21.65;12.45;;;;;;;;;;5014013;28;20080;-67
2023/01/09 05:13:19;;;;;;;23.10;13.40;;;;;;;;;;5013558;28;20518;-67
2023/01/09 05:15:44;;;;;;;15.75;10.38;;;;;;;;;;5014662;28;20034;-67
2023/01/09 05:18:09;;;;;;;24.73;13.38;;;;;;;;;;5014271;28;20028;-67
2023/01/09 05:20:36;;;;;;;32.90;17.35;;;;;;;;;;5014278;28;20041;-68
2023/01/09 05:23:01;;;;;;;21.67;12.48;;;;;;;;;;5014384;28;20033;-68
2023/01/09 05:25:27;;;;;;;26.15;15.93;;;;;;;;;;5001199;28;20042;-68
2023/01/09 05:27:52;;;;;;;25.75;13.93;;;;;;;;;;4994584;28;20026;-68
2023/01/09 05:30:18;;;;;;;19.02;12.15;;;;;;;;;;4994429;28;20041;-67
2023/01/09 05:32:44;;;;;;;27.50;13.90;;;;;;;;;;4994114;28;20419;-67
2023/01/09 05:35:09;;;;;;;23.63;13.88;;;;;;;;;;4994022;28;20065;-67
2023/01/09 05:37:35;;;;;;;20.65;12.20;;;;;;;;;;4994032;28;20031;-68
2023/01/09 05:40:00;;;;;;;23.33;13.43;;;;;;;;;;4993979;28;20037;-68
2023/01/09 05:42:26;;;;;;;35.20;17.67;;;;;;;;;;4994169;28;20022;-68
2023/01/09 05:44:51;;;;;;;29.40;15.80;;;;;;;;;;4994539;28;20373;-68
2023/01/09 05:47:16;;;;;;;32.58;17.50;;;;;;;;;;4994029;28;20054;-68
2023/01/09 05:49:42;;;;;;;19.75;12.15;;;;;;;;;;5010908;28;20068;-68
2023/01/09 05:52:07;;;;;;;33.70;19.17;;;;;;;;;;5013813;28;20038;-67
2023/01/09 05:54:33;;;;;;;30.33;16.85;;;;;;;;;;5013819;28;20037;-67
2023/01/09 05:56:59;;;;;;;35.78;18.65;;;;;;;;;;5013771;28;20037;-68
2023/01/09 05:59:24;;;;;;;25.02;13.20;;;;;;;;;;5012530;28;20030;-68
2023/01/09 06:01:50;;;;;;;21.60;12.35;;;;;;;;;;5013071;28;20044;-68
2023/01/09 06:04:15;;;;;;;38.00;20.08;;;;;;;;;;5012927;28;20040;-67
2023/01/09 06:06:40;;;;;;;20.77;12.93;;;;;;;;;;5012788;28;20065;-68
2023/01/09 06:09:06;;;;;;;16.70;9.93;;;;;;;;;;5013048;28;20076;-67
2023/01/09 06:11:34;;;;;;;26.23;15.50;;;;;;;;;;5013429;28;20045;-67
2023/01/09 06:14:00;;;;;;;16.92;10.68;;;;;;;;;;5013490;28;20475;-67
2023/01/09 06:16:26;;;;;;;21.58;12.98;;;;;;;;;;5013480;28;20034;-67
2023/01/09 06:18:52;;;;;;;17.35;10.98;;;;;;;;;;5013376;28;20026;-67
2023/01/09 06:21:17;;;;;;;25.13;12.75;;;;;;;;;;5013274;28;20060;-67
2023/01/09 06:23:42;;;;;;;25.92;13.82;;;;;;;;;;5012881;28;20038;-67
2023/01/09 06:26:08;;;;;;;35.78;19.25;;;;;;;;;;5013018;28;20021;-67
2023/01/09 06:28:33;;;;;;;54.55;26.27;;;;;;;;;;5012987;28;20025;-68
2023/01/09 06:30:59;;;;;;;38.55;18.63;;;;;;;;;;5011445;28;20092;-67
2023/01/09 06:33:24;;;;;;;58.85;29.15;;;;;;;;;;5013086;28;20057;-67
2023/01/09 06:35:49;;;;;;;54.92;27.90;;;;;;;;;;5012531;28;20022;-67
2023/01/09 06:38:15;;;;;;;51.47;26.70;;;;;;;;;;5012250;28;20075;-67
2023/01/09 06:40:40;;;;;;;42.38;23.80;;;;;;;;;;5012070;28;20439;-67
2023/01/09 06:43:06;;;;;;;43.75;23.77;;;;;;;;;;5012170;28;20030;-67
2023/01/09 06:45:31;;;;;;;60.30;29.70;;;;;;;;;;5012698;28;20139;-67
2023/01/09 06:47:57;;;;;;;45.85;25.80;;;;;;;;;;5012386;28;20042;-67
2023/01/09 06:50:22;;;;;;;49.97;25.67;;;;;;;;;;5012790;28;20025;-67
2023/01/09 06:52:48;;;;;;;41.80;21.00;;;;;;;;;;5012347;28;20026;-67
2023/01/09 06:55:13;;;;;;;38.38;22.55;;;;;;;;;;5012549;28;20030;-67
2023/01/09 06:57:39;;;;;;;33.88;16.13;;;;;;;;;;5011261;28;20030;-67
2023/01/09 07:00:05;;;;;;;24.52;14.18;;;;;;;;;;5012285;28;20030;-68
2023/01/09 07:02:30;;;;;;;19.60;11.93;;;;;;;;;;5012353;28;20030;-67
2023/01/09 07:04:56;;;;;;;17.08;10.40;;;;;;;;;;5012180;28;20026;-67
2023/01/09 07:07:21;;;;;;;20.38;11.02;;;;;;;;;;5011844;28;20109;-67
2023/01/09 07:09:47;;;;;;;21.25;12.32;;;;;;;;;;5012144;28;20439;-67
2023/01/09 07:12:14;;;;;;;18.75;10.55;;;;;;;;;;5012483;28;20030;-67
2023/01/09 07:14:39;;;;;;;19.08;11.52;;;;;;;;;;5012762;28;20112;-67
2023/01/09 07:17:05;;;;;;;20.27;12.20;;;;;;;;;;5012269;28;20101;-68
2023/01/09 07:19:31;;;;;;;23.48;13.77;;;;;;;;;;5012126;28;20026;-67
2023/01/09 07:21:56;;;;;;;18.15;10.45;;;;;;;;;;5012525;28;20038;-67
2023/01/09 07:24:22;;;;;;;17.73;9.63;;;;;;;;;;5012208;28;20463;-68
2023/01/09 07:26:47;;;;;;;15.40;8.98;;;;;;;;;;5012203;28;20467;-68
2023/01/09 07:29:12;;;;;;;22.10;12.75;;;;;;;;;;5012087;28;20104;-67
2023/01/09 07:31:38;;;;;;;15.73;9.20;;;;;;;;;;5011997;28;20188;-67
2023/01/09 07:34:03;;;;;;;20.88;11.80;;;;;;;;;;5012374;28;20037;-67
2023/01/09 07:36:29;;;;;;;18.05;9.77;;;;;;;;;;5016035;28;20523;-67
2023/01/09 07:38:54;;;;;;;26.90;15.30;;;;;;;;;;5015368;28;20033;-67
2023/01/09 07:41:20;;;;;;;25.75;13.13;;;;;;;;;;5016490;28;20088;-67
2023/01/09 07:43:45;;;;;;;26.92;14.48;;;;;;;;;;5016469;28;20198;-67
2023/01/09 07:46:10;;;;;;;31.23;16.85;;;;;;;;;;5015722;28;20108;-67
2023/01/09 07:48:36;;;;;;;32.10;16.15;;;;;;;;;;5016042;28;20113;-67
2023/01/09 07:51:01;;;;;;;32.65;16.20;;;;;;;;;;5016122;28;20428;-67
2023/01/09 07:53:27;;;;;;;34.70;17.33;;;;;;;;;;5015870;28;20053;-67
2023/01/09 07:55:52;;;;;;;29.05;16.60;;;;;;;;;;5016183;28;20030;-67
2023/01/09 07:58:18;;;;;;;35.20;17.60;;;;;;;;;;5015875;28;20018;-68
2023/01/09 08:00:43;;;;;;;16.92;10.57;;;;;;;;;;5009642;28;20479;-68
2023/01/09 08:03:08;;;;;;;20.08;12.10;;;;;;;;;;4991322;28;20031;-68
2023/01/09 08:05:34;;;;;;;14.10;7.85;;;;;;;;;;4990684;28;20030;-68
2023/01/09 08:08:00;;;;;;;26.05;16.23;;;;;;;;;;4995263;28;20033;-68
2023/01/09 08:10:26;;;;;;;22.15;13.95;;;;;;;;;;4994622;28;20033;-68
2023/01/09 08:12:52;;;;;;;19.02;10.65;;;;;;;;;;4989080;28;20029;-68
2023/01/09 08:15:17;;;;;;;34.17;17.23;;;;;;;;;;4987577;28;20042;-68
2023/01/09 08:17:44;;;;;;;23.95;11.90;;;;;;;;;;4982859;28;20019;-68
2023/01/09 08:20:11;;;;;;;32.72;17.13;;;;;;;;;;4976869;28;20026;-68
2023/01/09 08:22:38;;;;;;;27.25;14.70;;;;;;;;;;4976460;28;20034;-68
2023/01/09 08:25:04;;;;;;;33.17;16.13;;;;;;;;;;4976481;28;20146;-68
2023/01/09 08:27:29;;;;;;;26.20;15.38;;;;;;;;;;4981468;28;20105;-68
2023/01/09 08:29:55;;;;;;;24.90;14.30;;;;;;;;;;4986627;28;20038;-68
2023/01/09 08:32:20;;;;;;;30.90;16.75;;;;;;;;;;4985231;28;20030;-68
2023/01/09 08:34:46;;;;;;;28.33;15.70;;;;;;;;;;4986633;28;20022;-67
2023/01/09 08:37:11;;;;;;;20.80;11.40;;;;;;;;;;4985799;28;20031;-68
2023/01/09 08:39:36;;;;;;;18.77;10.73;;;;;;;;;;4984436;28;20431;-67
2023/01/09 08:47:33;;;;;;;28.25;14.73;;;;;;;;;;4985588;28;20054;-68
2023/01/09 08:49:59;;;;;;;18.42;11.00;;;;;;;;;;4986557;28;20465;-68
2023/01/09 08:52:25;;;;;;;20.63;12.70;;;;;;;;;;4985487;28;20423;-69
2023/01/09 08:54:50;;;;;;;20.23;9.88;;;;;;;;;;4985499;28;20025;-68
2023/01/09 08:57:15;;;;;;;16.17;9.75;;;;;;;;;;4984316;28;20503;-69
2023/01/09 08:59:41;;;;;;;18.65;12.00;;;;;;;;;;4986305;28;20475;-69
2023/01/09 09:02:06;;;;;;;17.38;9.05;;;;;;;;;;4985067;28;20479;-69
2023/01/09 09:04:32;;;;;;;25.00;14.57;;;;;;;;;;4989858;28;20033;-69
2023/01/09 09:06:57;;;;;;;20.02;8.93;;;;;;;;;;4994530;28;20352;-69
2023/01/09 09:09:24;;;;;;;27.90;14.52;;;;;;;;;;4992030;28;20030;-69
2023/01/09 09:11:50;;;;;;;26.00;13.27;;;;;;;;;;4995186;28;20034;-68
2023/01/09 09:17:00;;;;;;;34.10;16.58;;;;;;;;;;4992075;28;20053;-69
2023/01/09 09:19:26;;;;;;;31.30;16.50;;;;;;;;;;4995077;28;20038;-69
2023/01/09 09:21:51;;;;;;;25.30;12.30;;;;;;;;;;4994957;28;20101;-69
2023/01/09 09:24:17;;;;;;;23.95;12.38;;;;;;;;;;4994971;28;20084;-68
2023/01/09 09:26:42;;;;;;;28.52;14.45;;;;;;;;;;4994495;28;20037;-68
2023/01/09 09:29:07;;;;;;;25.27;13.50;;;;;;;;;;4994767;28;20037;-69
2023/01/09 09:31:35;;;;;;;25.13;12.43;;;;;;;;;;4994622;28;20440;-68
2023/01/09 09:34:01;;;;;;;26.10;14.38;;;;;;;;;;4994652;28;20081;-69
2023/01/09 09:36:27;;;;;;;29.13;15.55;;;;;;;;;;5000438;28;20029;-68
2023/01/09 09:38:53;;;;;;;28.20;14.65;;;;;;;;;;5014215;28;20133;-68
2023/01/09 09:45:01;;;;;;;24.50;14.00;;;;;;;;;;4992372;28;20502;-69
2023/01/09 09:47:36;;;;;;;28.70;14.57;;;;;;;;;;4991709;28;20054;-68
2023/01/09 09:50:05;;;;;;;27.52;15.02;;;;;;;;;;4991403;28;20046;-68
2023/01/09 09:52:48;;;;;;;33.13;16.27;;;;;;;;;;4992263;28;20076;-69
2023/01/09 09:55:19;;;;;;;29.92;15.05;;;;;;;;;;4979531;28;20078;-68
2023/01/09 09:57:47;;;;;;;31.33;15.80;;;;;;;;;;4971512;28;20558;-68
2023/01/09 10:00:19;;;;;;;20.48;10.55;;;;;;;;;;4971399;28;20042;-68
2023/01/09 10:02:54;;;;;;;24.08;12.70;;;;;;;;;;4972577;28;20511;-68
2023/01/09 10:05:41;;;;;;;20.23;10.98;;;;;;;;;;4972407;28;20030;-68
2023/01/09 10:08:26;;;;;;;26.58;13.77;;;;;;;;;;4972348;28;20456;-68
2023/01/09 10:10:53;;;;;;;24.67;13.55;;;;;;;;;;4969816;28;20035;-68
2023/01/09 10:16:16;;;;;;;20.50;11.32;;;;;;;;;;4972840;28;20566;-68
2023/01/09 10:18:57;;;;;;;25.20;14.00;;;;;;;;;;4972232;28;20037;-68
2023/01/09 10:21:34;;;;;;;22.02;12.65;;;;;;;;;;4973432;28;20073;-68
2023/01/09 10:24:14;;;;;;;25.75;12.40;;;;;;;;;;4974531;28;20031;-68
2023/01/09 10:27:03;;;;;;;25.80;14.48;;;;;;;;;;4974505;28;20053;-68
2023/01/09 10:29:50;;;;;;;22.08;12.13;;;;;;;;;;4982981;28;20026;-68
2023/01/09 10:32:26;;;;;;;28.98;16.50;;;;;;;;;;4993443;28;20022;-69
2023/01/09 10:35:03;;;;;;;28.70;14.05;;;;;;;;;;4993732;28;20034;-69
2023/01/09 10:37:33;;;;;;;29.30;15.45;;;;;;;;;;4993585;28;20052;-69
2023/01/09 10:40:01;;;;;;;27.02;14.98;;;;;;;;;;4993805;28;20109;-69
2023/01/09 10:42:32;;;;;;;28.73;14.60;;;;;;;;;;4992877;28;20027;-69
2023/01/09 10:45:04;;;;;;;22.40;12.60;;;;;;;;;;4993540;28;20027;-68
2023/01/09 10:47:34;;;;;;;25.83;14.40;;;;;;;;;;4992995;28;20049;-68
2023/01/09 10:50:06;;;;;;;25.17;14.65;;;;;;;;;;4974533;28;20035;-69
2023/01/09 10:52:40;;;;;;;24.35;13.63;;;;;;;;;;4973958;28;20126;-69
2023/01/09 10:55:39;;;;;;;25.67;14.20;;;;;;;;;;4973911;28;20546;-68
2023/01/09 10:58:31;;;;;;;24.23;13.48;;;;;;;;;;4973930;28;20035;-68
2023/01/09 11:01:00;;;;;;;24.25;13.63;;;;;;;;;;4973684;28;20496;-68
2023/01/09 11:03:26;;;;;;;21.85;12.55;;;;;;;;;;4973502;28;20030;-68
2023/01/09 11:05:56;;;;;;;24.63;13.43;;;;;;;;;;4973365;28;20027;-69
2023/01/09 11:08:41;;;;;;;29.30;14.32;;;;;;;;;;4973218;28;20135;-68
2023/01/09 11:11:08;;;;;;;24.45;14.00;;;;;;;;;;4973804;28;20518;-69
2023/01/09 11:13:37;;;;;;;19.83;12.23;;;;;;;;;;4973696;28;20481;-68
2023/01/09 11:16:21;;;;;;;24.90;13.15;;;;;;;;;;4973379;28;20047;-67
2023/01/09 11:18:58;;;;;;;22.55;13.52;;;;;;;;;;4973654;28;20476;-68
2023/01/09 11:21:32;;;;;;;24.55;13.85;;;;;;;;;;4973765;28;20037;-68
2023/01/09 11:24:18;;;;;;;26.80;12.80;;;;;;;;;;4973671;28;20065;-68
2023/01/09 11:26:45;;;;;;;20.50;12.48;;;;;;;;;;4973072;28;20041;-68
2023/01/09 11:29:15;;;;;;;20.85;11.73;;;;;;;;;;4973440;28;20019;-68
2023/01/09 11:31:49;;;;;;;21.58;12.98;;;;;;;;;;4973259;28;20073;-68
2023/01/09 11:34:16;;;;;;;24.13;12.80;;;;;;;;;;4973330;28;20035;-68
2023/01/09 11:36:42;;;;;;;20.92;12.60;;;;;;;;;;4973474;28;20026;-68
2023/01/09 11:39:18;;;;;;;15.25;8.70;;;;;;;;;;4973613;28;20114;-67
2023/01/09 11:41:43;;;;;;;21.27;12.30;;;;;;;;;;4973499;28;20066;-68
2023/01/09 11:44:14;;;;;;;21.88;11.73;;;;;;;;;;4973395;28;20058;-68
2023/01/09 11:46:42;;;;;;;19.67;12.45;;;;;;;;;;4973063;28;20055;-68
2023/01/09 11:49:13;;;;;;;29.77;12.75;;;;;;;;;;4973125;28;20135;-68
2023/01/09 11:51:40;;;;;;;21.23;11.68;;;;;;;;;;4973039;28;20491;-68
2023/01/09 11:54:09;;;;;;;22.48;12.70;;;;;;;;;;4973325;28;20027;-68
2023/01/09 11:56:35;;;;;;;19.10;12.00;;;;;;;;;;4973357;28;20050;-68
2023/01/09 11:59:01;;;;;;;21.55;12.70;;;;;;;;;;4973223;28;20041;-68
2023/01/09 12:01:38;;;;;;;20.67;12.23;;;;;;;;;;4973476;28;20041;-68
2023/01/09 12:04:09;;;;;;;21.58;12.93;;;;;;;;;;4973318;28;20184;-68
2023/01/09 12:06:48;;;;;;;19.85;12.50;;;;;;;;;;4973056;28;20499;-68
2023/01/09 12:09:41;;;;;;;20.45;12.05;;;;;;;;;;4973128;28;20109;-68
2023/01/09 12:12:12;;;;;;;25.27;13.43;;;;;;;;;;4973274;28;20098;-68
2023/01/09 12:14:44;;;;;;;22.13;12.48;;;;;;;;;;4972933;28;20109;-68
2023/01/09 12:17:52;;;;;;;21.30;12.70;;;;;;;;;;4973273;28;20019;-68
2023/01/09 12:20:21;;;;;;;18.33;10.57;;;;;;;;;;4970873;28;20039;-68
2023/01/09 12:23:12;;;;;;;24.63;12.75;;;;;;;;;;4976841;28;20026;-68
2023/01/09 12:25:38;;;;;;;23.48;12.65;;;;;;;;;;4975950;28;20046;-68
2023/01/09 12:28:22;;;;;;;20.52;13.32;;;;;;;;;;4976540;28;20049;-68
2023/01/09 12:31:21;;;;;;;25.65;13.20;;;;;;;;;;4976660;28;20034;-68
2023/01/09 12:34:12;;;;;;;21.00;13.23;;;;;;;;;;4976510;28;20041;-68
2023/01/09 12:36:37;;;;;;;;;;;;;;;;;;4976910;28;20441;-68
2023/01/09 12:39:27;;;;;;;20.50;12.57;;;;;;;;;;4976528;28;19914;-68
2023/01/09 12:42:12;;;;;;;23.20;13.70;;;;;;;;;;4976364;28;20103;-68
2023/01/09 12:45:05;;;;;;;27.83;14.77;;;;;;;;;;4976093;28;20204;-68
2023/01/09 12:47:43;;;;;;;27.67;16.27;;;;;;;;;;4976162;28;20075;-68
2023/01/09 12:50:26;;;;;;;28.80;17.02;;;;;;;;;;4976119;28;20035;-68
2023/01/09 12:53:13;;;;;;;22.42;13.75;;;;;;;;;;4976196;28;20488;-68
2023/01/09 12:55:47;;;;;;;23.63;13.77;;;;;;;;;;4990882;28;20121;-68
2023/01/09 12:58:35;;;;;;;20.00;12.02;;;;;;;;;;4975716;28;20042;-67
2023/01/09 13:01:04;;;;;;;22.35;12.38;;;;;;;;;;4975835;28;20027;-69
2023/01/09 13:03:46;;;;;;;20.85;11.75;;;;;;;;;;4987683;28;20038;-69
2023/01/09 13:06:16;;;;;;;18.83;11.75;;;;;;;;;;4983417;28;20264;-67
2023/01/09 13:08:47;;;;;;;19.08;12.45;;;;;;;;;;4984589;28;20023;-67
2023/01/09 13:11:49;;;;;;;19.48;12.48;;;;;;;;;;4990270;28;20520;-67
2023/01/09 13:14:20;;;;;;;21.67;12.68;;;;;;;;;;4980304;28;20074;-69
2023/01/09 13:16:49;;;;;;;17.90;11.00;;;;;;;;;;4986068;28;20021;-68
2023/01/09 13:19:30;;;;;;;21.77;12.45;;;;;;;;;;4984623;28;20077;-69
2023/01/09 13:21:57;;;;;;;17.90;10.95;;;;;;;;;;4985111;28;20039;-69
2023/01/09 13:24:37;;;;;;;20.95;11.55;;;;;;;;;;4983601;28;20034;-69
2023/01/09 13:27:08;;;;;;;;;;;;;;;;;;4985953;28;20033;-69
2023/01/09 13:29:41;;;;;;;15.52;9.27;;;;;;;;;;4984607;28;20001;-69
2023/01/09 13:32:18;;;;;;;15.02;9.25;;;;;;;;;;4983836;28;20027;-69
2023/01/09 13:34:46;;;;;;;15.00;9.02;;;;;;;;;;4983666;28;20026;-69
2023/01/09 13:37:24;;;;;;;15.93;9.80;;;;;;;;;;4985041;28;20380;-69
2023/01/09 13:40:23;;;;;;;13.82;9.18;;;;;;;;;;4983867;28;20030;-69
2023/01/09 13:43:02;;;;;;;16.35;10.13;;;;;;;;;;4983319;28;20106;-69
2023/01/09 13:45:31;;;;;;;14.65;9.40;;;;;;;;;;4983524;28;20114;-69
2023/01/09 13:48:09;;;;;;;15.77;9.43;;;;;;;;;;4985650;28;20038;-69
2023/01/09 13:50:36;;;;;;;17.88;9.90;;;;;;;;;;4986385;28;20061;-69
2023/01/09 13:53:17;;;;;;;13.73;8.15;;;;;;;;;;4988002;28;20081;-69
2023/01/09 13:56:13;;;;;;;13.82;8.50;;;;;;;;;;4984534;28;20019;-69
2023/01/09 13:58:39;;;;;;;13.82;9.23;;;;;;;;;;4979404;28;20475;-69
2023/01/09 14:01:25;;;;;;;14.70;9.10;;;;;;;;;;4984125;28;20037;-69
2023/01/09 14:04:35;;;;;;;16.80;9.40;;;;;;;;;;4988393;28;20037;-69
2023/01/09 14:07:21;;;;;;;15.35;9.75;;;;;;;;;;4972410;28;20038;-69
2023/01/09 14:10:02;;;;;;;14.15;9.13;;;;;;;;;;4952938;28;20540;-69
2023/01/09 14:12:31;;;;;;;12.48;8.73;;;;;;;;;;4953158;29;20063;-69
2023/01/09 14:15:00;;;;;;;13.65;8.65;;;;;;;;;;4953250;28;20366;-69
2023/01/09 14:17:36;;;;;;;14.20;9.07;;;;;;;;;;4953201;28;20035;-69
2023/01/09 14:20:06;;;;;;;12.45;8.55;;;;;;;;;;4953169;29;20027;-69
2023/01/09 14:22:34;;;;;;;17.00;10.15;;;;;;;;;;4952793;29;20225;-69
2023/01/09 14:25:08;;;;;;;13.60;9.20;;;;;;;;;;4952544;29;20532;-69
2023/01/09 14:27:53;;;;;;;14.65;9.13;;;;;;;;;;4952956;28;20170;-69
2023/01/09 14:30:48;;;;;;;13.05;8.32;;;;;;;;;;4952708;28;20083;-69
2023/01/09 14:33:26;;;;;;;13.18;7.93;;;;;;;;;;4955505;28;20042;-69
2023/01/09 14:36:20;;;;;;;12.25;7.63;;;;;;;;;;4952786;29;20043;-69
2023/01/09 14:38:52;;;;;;;12.13;6.95;;;;;;;;;;4952668;29;20111;-69
2023/01/09 14:44:27;;;;;;;13.68;8.50;;;;;;;;;;4973769;28;20112;-69
2023/01/09 14:46:54;;;;;;;13.70;8.05;;;;;;;;;;4973993;28;20079;-69
2023/01/09 14:49:37;;;;;;;13.27;8.88;;;;;;;;;;4987225;28;20042;-69
2023/01/09 14:52:17;;;;;;;12.00;8.07;;;;;;;;;;4993276;28;20038;-69
2023/01/09 14:54:43;;;;;;;13.77;8.40;;;;;;;;;;4993268;28;20428;-69
2023/01/09 14:57:26;;;;;;;13.98;8.07;;;;;;;;;;4993249;28;20069;-69
2023/01/09 15:00:10;;;;;;;11.45;8.02;;;;;;;;;;4992940;28;20419;-69
2023/01/09 15:02:36;;;;;;;11.52;7.50;;;;;;;;;;4992753;28;20041;-69
2023/01/09 15:05:08;;;;;;;12.30;7.18;;;;;;;;;;4992647;28;20030;-69